sensor_id;sensor_type;location;lat;lon;timestamp;P1;durP1;ratioP1;P2;durP2;ratioP2
37305;SDS011;23193;42.656;21.170;2023-09-19T00:01:47;24.42;;;12.93;;
37305;SDS011;23193;42.656;21.170;2023-09-19T00:04:15;20.60;;;13.32;;
37305;SDS011;23193;42.656;21.170;2023-09-19T00:06:44;30.30;;;13.30;;
37305;SDS011;23193;42.656;21.170;2023-09-19T00:09:14;22.75;;;13.13;;
37305;SDS011;23193;42.656;21.170;2023-09-19T00:11:41;22.67;;;13.10;;
37305;SDS011;23193;42.656;21.170;2023-09-19T00:14:09;27.05;;;13.93;;
37305;SDS011;23193;42.656;21.170;2023-09-19T00:16:40;23.98;;;14.48;;
37305;SDS011;23193;42.656;21.170;2023-09-19T00:19:08;24.63;;;14.02;;
37305;SDS011;23193;42.656;21.170;2023-09-19T00:21:36;22.20;;;13.02;;
37305;SDS011;23193;42.656;21.170;2023-09-19T00:24:04;21.48;;;14.20;;
37305;SDS011;23193;42.656;21.170;2023-09-19T00:26:32;18.95;;;13.90;;
37305;SDS011;23193;42.656;21.170;2023-09-19T00:29:01;25.83;;;12.55;;
37305;SDS011;23193;42.656;21.170;2023-09-19T00:31:35;29.50;;;14.00;;
37305;SDS011;23193;42.656;21.170;2023-09-19T00:34:04;23.52;;;13.35;;
37305;SDS011;23193;42.656;21.170;2023-09-19T00:36:33;22.00;;;13.13;;
37305;SDS011;23193;42.656;21.170;2023-09-19T00:39:01;22.52;;;13.57;;
37305;SDS011;23193;42.656;21.170;2023-09-19T00:41:29;21.33;;;13.20;;
37305;SDS011;23193;42.656;21.170;2023-09-19T00:43:57;23.90;;;13.38;;
37305;SDS011;23193;42.656;21.170;2023-09-19T00:46:28;19.75;;;12.80;;
37305;SDS011;23193;42.656;21.170;2023-09-19T00:48:56;22.95;;;13.05;;
37305;SDS011;23193;42.656;21.170;2023-09-19T00:51:24;26.27;;;13.38;;
37305;SDS011;23193;42.656;21.170;2023-09-19T00:53:54;26.98;;;15.45;;
37305;SDS011;23193;42.656;21.170;2023-09-19T00:56:22;23.45;;;14.82;;
37305;SDS011;23193;42.656;21.170;2023-09-19T00:58:50;26.85;;;15.23;;
37305;SDS011;23193;42.656;21.170;2023-09-19T01:01:18;23.98;;;15.00;;
37305;SDS011;23193;42.656;21.170;2023-09-19T01:03:46;23.65;;;15.27;;
37305;SDS011;23193;42.656;21.170;2023-09-19T01:06:14;23.73;;;15.90;;
37305;SDS011;23193;42.656;21.170;2023-09-19T01:08:42;25.30;;;16.10;;
37305;SDS011;23193;42.656;21.170;2023-09-19T01:13:46;25.05;;;15.00;;
37305;SDS011;23193;42.656;21.170;2023-09-19T01:22:05;23.17;;;14.63;;
37305;SDS011;23193;42.656;21.170;2023-09-19T01:29:45;27.98;;;14.90;;
37305;SDS011;23193;42.656;21.170;2023-09-19T01:32:15;31.23;;;15.55;;
37305;SDS011;23193;42.656;21.170;2023-09-19T01:34:44;25.13;;;14.67;;
37305;SDS011;23193;42.656;21.170;2023-09-19T01:37:14;37.40;;;18.43;;
37305;SDS011;23193;42.656;21.170;2023-09-19T01:39:47;32.85;;;20.40;;
37305;SDS011;23193;42.656;21.170;2023-09-19T01:43:20;28.27;;;18.60;;
37305;SDS011;23193;42.656;21.170;2023-09-19T01:47:49;28.85;;;17.73;;
37305;SDS011;23193;42.656;21.170;2023-09-19T01:50:32;26.50;;;18.83;;
37305;SDS011;23193;42.656;21.170;2023-09-19T01:53:49;28.77;;;19.45;;
37305;SDS011;23193;42.656;21.170;2023-09-19T01:55:57;34.30;;;19.63;;
37305;SDS011;23193;42.656;21.170;2023-09-19T01:58:42;32.05;;;18.52;;
37305;SDS011;23193;42.656;21.170;2023-09-19T02:01:14;31.75;;;18.23;;
37305;SDS011;23193;42.656;21.170;2023-09-19T02:03:44;31.15;;;18.23;;
37305;SDS011;23193;42.656;21.170;2023-09-19T02:06:16;27.70;;;16.58;;
37305;SDS011;23193;42.656;21.170;2023-09-19T02:08:46;33.90;;;15.27;;
37305;SDS011;23193;42.656;21.170;2023-09-19T02:11:14;23.23;;;15.30;;
37305;SDS011;23193;42.656;21.170;2023-09-19T02:13:42;26.13;;;15.35;;
37305;SDS011;23193;42.656;21.170;2023-09-19T02:16:11;24.48;;;15.57;;
37305;SDS011;23193;42.656;21.170;2023-09-19T02:18:39;26.88;;;15.68;;
37305;SDS011;23193;42.656;21.170;2023-09-19T02:21:07;27.20;;;16.42;;
37305;SDS011;23193;42.656;21.170;2023-09-19T02:23:37;23.95;;;15.63;;
37305;SDS011;23193;42.656;21.170;2023-09-19T02:26:06;22.48;;;15.48;;
37305;SDS011;23193;42.656;21.170;2023-09-19T02:28:34;29.73;;;16.13;;
37305;SDS011;23193;42.656;21.170;2023-09-19T02:31:02;25.33;;;15.73;;
37305;SDS011;23193;42.656;21.170;2023-09-19T02:33:34;27.52;;;15.38;;
37305;SDS011;23193;42.656;21.170;2023-09-19T02:36:03;23.67;;;14.05;;
37305;SDS011;23193;42.656;21.170;2023-09-19T02:38:32;24.15;;;14.73;;
37305;SDS011;23193;42.656;21.170;2023-09-19T02:41:00;23.05;;;14.45;;
37305;SDS011;23193;42.656;21.170;2023-09-19T02:43:28;37.03;;;15.02;;
37305;SDS011;23193;42.656;21.170;2023-09-19T02:45:56;26.35;;;16.13;;
37305;SDS011;23193;42.656;21.170;2023-09-19T02:48:24;24.58;;;15.18;;
37305;SDS011;23193;42.656;21.170;2023-09-19T02:50:52;20.48;;;14.60;;
37305;SDS011;23193;42.656;21.170;2023-09-19T02:53:20;23.60;;;14.68;;
37305;SDS011;23193;42.656;21.170;2023-09-19T02:55:49;24.27;;;14.82;;
37305;SDS011;23193;42.656;21.170;2023-09-19T02:58:21;27.17;;;16.65;;
37305;SDS011;23193;42.656;21.170;2023-09-19T03:00:50;29.63;;;16.13;;
37305;SDS011;23193;42.656;21.170;2023-09-19T03:03:18;30.95;;;16.50;;
37305;SDS011;23193;42.656;21.170;2023-09-19T03:05:46;23.98;;;17.00;;
37305;SDS011;23193;42.656;21.170;2023-09-19T03:10:47;28.60;;;16.88;;
37305;SDS011;23193;42.656;21.170;2023-09-19T03:13:16;26.67;;;16.42;;
37305;SDS011;23193;42.656;21.170;2023-09-19T03:15:44;30.52;;;17.85;;
37305;SDS011;23193;42.656;21.170;2023-09-19T03:18:17;33.50;;;17.52;;
37305;SDS011;23193;42.656;21.170;2023-09-19T03:20:52;33.33;;;18.45;;
37305;SDS011;23193;42.656;21.170;2023-09-19T03:23:22;33.35;;;15.88;;
37305;SDS011;23193;42.656;21.170;2023-09-19T03:25:50;28.10;;;16.73;;
37305;SDS011;23193;42.656;21.170;2023-09-19T03:28:19;26.20;;;17.42;;
37305;SDS011;23193;42.656;21.170;2023-09-19T03:31:02;29.75;;;15.27;;
37305;SDS011;23193;42.656;21.170;2023-09-19T03:33:32;28.90;;;16.38;;
37305;SDS011;23193;42.656;21.170;2023-09-19T03:36:02;26.48;;;16.42;;
37305;SDS011;23193;42.656;21.170;2023-09-19T03:38:34;29.67;;;18.17;;
37305;SDS011;23193;42.656;21.170;2023-09-19T03:41:02;29.08;;;18.13;;
37305;SDS011;23193;42.656;21.170;2023-09-19T03:43:33;27.70;;;17.30;;
37305;SDS011;23193;42.656;21.170;2023-09-19T03:46:02;29.08;;;18.27;;
37305;SDS011;23193;42.656;21.170;2023-09-19T03:48:36;34.90;;;16.85;;
37305;SDS011;23193;42.656;21.170;2023-09-19T03:51:07;31.27;;;16.92;;
37305;SDS011;23193;42.656;21.170;2023-09-19T03:53:44;25.53;;;17.63;;
37305;SDS011;23193;42.656;21.170;2023-09-19T03:56:13;28.17;;;17.60;;
37305;SDS011;23193;42.656;21.170;2023-09-19T03:58:41;30.30;;;18.23;;
37305;SDS011;23193;42.656;21.170;2023-09-19T04:01:08;25.17;;;17.30;;
37305;SDS011;23193;42.656;21.170;2023-09-19T04:03:36;33.67;;;17.75;;
37305;SDS011;23193;42.656;21.170;2023-09-19T04:06:15;34.58;;;18.88;;
37305;SDS011;23193;42.656;21.170;2023-09-19T04:08:43;33.20;;;18.25;;
37305;SDS011;23193;42.656;21.170;2023-09-19T04:11:11;31.30;;;18.48;;
37305;SDS011;23193;42.656;21.170;2023-09-19T04:13:39;29.48;;;18.52;;
37305;SDS011;23193;42.656;21.170;2023-09-19T04:16:08;35.25;;;17.90;;
37305;SDS011;23193;42.656;21.170;2023-09-19T04:18:37;26.42;;;17.40;;
37305;SDS011;23193;42.656;21.170;2023-09-19T04:21:07;30.43;;;17.33;;
37305;SDS011;23193;42.656;21.170;2023-09-19T04:23:35;30.98;;;17.17;;
37305;SDS011;23193;42.656;21.170;2023-09-19T04:26:03;26.45;;;17.10;;
37305;SDS011;23193;42.656;21.170;2023-09-19T04:28:31;25.20;;;16.30;;
37305;SDS011;23193;42.656;21.170;2023-09-19T04:31:01;38.47;;;17.98;;
37305;SDS011;23193;42.656;21.170;2023-09-19T04:33:29;31.85;;;17.27;;
37305;SDS011;23193;42.656;21.170;2023-09-19T04:35:57;34.78;;;17.50;;
37305;SDS011;23193;42.656;21.170;2023-09-19T04:38:46;33.13;;;17.58;;
37305;SDS011;23193;42.656;21.170;2023-09-19T04:41:15;38.00;;;19.08;;
37305;SDS011;23193;42.656;21.170;2023-09-19T04:43:43;36.35;;;18.58;;
37305;SDS011;23193;42.656;21.170;2023-09-19T04:46:11;31.23;;;18.02;;
37305;SDS011;23193;42.656;21.170;2023-09-19T04:48:41;30.93;;;17.93;;
37305;SDS011;23193;42.656;21.170;2023-09-19T04:51:09;32.30;;;19.48;;
37305;SDS011;23193;42.656;21.170;2023-09-19T04:53:37;26.60;;;17.92;;
37305;SDS011;23193;42.656;21.170;2023-09-19T04:56:05;40.85;;;20.10;;
37305;SDS011;23193;42.656;21.170;2023-09-19T04:58:34;34.13;;;18.88;;
37305;SDS011;23193;42.656;21.170;2023-09-19T05:01:03;35.13;;;18.73;;
37305;SDS011;23193;42.656;21.170;2023-09-19T05:03:31;37.22;;;18.15;;
37305;SDS011;23193;42.656;21.170;2023-09-19T05:05:59;37.53;;;18.80;;
37305;SDS011;23193;42.656;21.170;2023-09-19T05:08:27;39.78;;;20.35;;
37305;SDS011;23193;42.656;21.170;2023-09-19T05:10:55;28.98;;;17.63;;
37305;SDS011;23193;42.656;21.170;2023-09-19T05:13:23;45.47;;;18.45;;
37305;SDS011;23193;42.656;21.170;2023-09-19T05:15:51;48.85;;;19.75;;
37305;SDS011;23193;42.656;21.170;2023-09-19T05:18:19;46.95;;;20.45;;
37305;SDS011;23193;42.656;21.170;2023-09-19T05:20:48;45.20;;;18.30;;
37305;SDS011;23193;42.656;21.170;2023-09-19T05:23:16;36.60;;;18.08;;
37305;SDS011;23193;42.656;21.170;2023-09-19T05:28:16;34.10;;;18.75;;
37305;SDS011;23193;42.656;21.170;2023-09-19T05:30:44;40.10;;;19.42;;
37305;SDS011;23193;42.656;21.170;2023-09-19T05:33:15;42.85;;;19.40;;
37305;SDS011;23193;42.656;21.170;2023-09-19T05:35:45;40.05;;;18.30;;
37305;SDS011;23193;42.656;21.170;2023-09-19T05:38:13;32.70;;;18.77;;
37305;SDS011;23193;42.656;21.170;2023-09-19T05:40:45;28.95;;;17.45;;
37305;SDS011;23193;42.656;21.170;2023-09-19T05:43:14;40.47;;;19.08;;
37305;SDS011;23193;42.656;21.170;2023-09-19T05:45:42;47.80;;;18.40;;
37305;SDS011;23193;42.656;21.170;2023-09-19T05:48:13;35.22;;;18.05;;
37305;SDS011;23193;42.656;21.170;2023-09-19T05:50:43;42.00;;;17.25;;
37305;SDS011;23193;42.656;21.170;2023-09-19T05:53:14;35.15;;;17.83;;
37305;SDS011;23193;42.656;21.170;2023-09-19T05:55:42;33.00;;;17.65;;
37305;SDS011;23193;42.656;21.170;2023-09-19T05:58:11;35.35;;;17.83;;
37305;SDS011;23193;42.656;21.170;2023-09-19T06:00:44;34.90;;;18.15;;
37305;SDS011;23193;42.656;21.170;2023-09-19T06:03:14;37.47;;;18.57;;
37305;SDS011;23193;42.656;21.170;2023-09-19T06:05:44;36.70;;;19.67;;
37305;SDS011;23193;42.656;21.170;2023-09-19T06:08:12;45.95;;;20.70;;
37305;SDS011;23193;42.656;21.170;2023-09-19T06:10:40;39.00;;;20.92;;
37305;SDS011;23193;42.656;21.170;2023-09-19T06:13:08;34.40;;;20.02;;
37305;SDS011;23193;42.656;21.170;2023-09-19T06:15:37;40.42;;;20.15;;
37305;SDS011;23193;42.656;21.170;2023-09-19T06:18:10;45.80;;;23.40;;
37305;SDS011;23193;42.656;21.170;2023-09-19T06:20:40;108.13;;;61.63;;
37305;SDS011;23193;42.656;21.170;2023-09-19T06:23:12;49.53;;;31.52;;
37305;SDS011;23193;42.656;21.170;2023-09-19T06:25:40;37.67;;;21.08;;
37305;SDS011;23193;42.656;21.170;2023-09-19T06:28:09;41.63;;;20.05;;
37305;SDS011;23193;42.656;21.170;2023-09-19T06:30:39;40.05;;;20.00;;
37305;SDS011;23193;42.656;21.170;2023-09-19T06:33:07;39.65;;;20.30;;
37305;SDS011;23193;42.656;21.170;2023-09-19T06:35:34;34.35;;;19.75;;
37305;SDS011;23193;42.656;21.170;2023-09-19T06:38:03;39.40;;;17.95;;
37305;SDS011;23193;42.656;21.170;2023-09-19T06:40:31;41.83;;;19.83;;
37305;SDS011;23193;42.656;21.170;2023-09-19T06:42:59;36.05;;;18.77;;
37305;SDS011;23193;42.656;21.170;2023-09-19T06:45:29;43.77;;;19.60;;
37305;SDS011;23193;42.656;21.170;2023-09-19T06:47:58;37.63;;;18.38;;
37305;SDS011;23193;42.656;21.170;2023-09-19T06:50:27;37.05;;;19.60;;
37305;SDS011;23193;42.656;21.170;2023-09-19T06:52:57;29.38;;;17.92;;
37305;SDS011;23193;42.656;21.170;2023-09-19T06:55:26;46.58;;;18.55;;
37305;SDS011;23193;42.656;21.170;2023-09-19T06:57:59;42.88;;;18.55;;
37305;SDS011;23193;42.656;21.170;2023-09-19T07:00:27;33.97;;;17.02;;
37305;SDS011;23193;42.656;21.170;2023-09-19T07:03:02;38.50;;;17.88;;
37305;SDS011;23193;42.656;21.170;2023-09-19T07:05:35;35.75;;;16.45;;
37305;SDS011;23193;42.656;21.170;2023-09-19T07:08:07;35.97;;;17.08;;
37305;SDS011;23193;42.656;21.170;2023-09-19T07:10:37;30.08;;;16.98;;
37305;SDS011;23193;42.656;21.170;2023-09-19T07:13:08;36.20;;;16.05;;
37305;SDS011;23193;42.656;21.170;2023-09-19T07:15:38;25.67;;;15.25;;
37305;SDS011;23193;42.656;21.170;2023-09-19T07:20:38;29.05;;;16.52;;
37305;SDS011;23193;42.656;21.170;2023-09-19T07:23:06;35.05;;;16.10;;
37305;SDS011;23193;42.656;21.170;2023-09-19T07:25:34;30.13;;;15.25;;
37305;SDS011;23193;42.656;21.170;2023-09-19T07:28:03;29.10;;;16.67;;
37305;SDS011;23193;42.656;21.170;2023-09-19T07:30:31;33.25;;;14.98;;
37305;SDS011;23193;42.656;21.170;2023-09-19T07:32:59;33.30;;;16.85;;
37305;SDS011;23193;42.656;21.170;2023-09-19T07:35:28;32.00;;;15.93;;
37305;SDS011;23193;42.656;21.170;2023-09-19T07:37:56;36.58;;;16.00;;
37305;SDS011;23193;42.656;21.170;2023-09-19T07:40:28;29.75;;;16.40;;
37305;SDS011;23193;42.656;21.170;2023-09-19T07:42:57;28.65;;;16.00;;
37305;SDS011;23193;42.656;21.170;2023-09-19T07:47:57;23.40;;;14.23;;
37305;SDS011;23193;42.656;21.170;2023-09-19T07:50:24;27.77;;;14.10;;
37305;SDS011;23193;42.656;21.170;2023-09-19T07:52:53;43.47;;;13.85;;
37305;SDS011;23193;42.656;21.170;2023-09-19T07:55:21;22.85;;;14.20;;
37305;SDS011;23193;42.656;21.170;2023-09-19T07:57:53;26.75;;;13.82;;
37305;SDS011;23193;42.656;21.170;2023-09-19T08:00:20;31.35;;;15.98;;
37305;SDS011;23193;42.656;21.170;2023-09-19T08:02:49;30.67;;;14.32;;
37305;SDS011;23193;42.656;21.170;2023-09-19T08:05:30;27.55;;;14.52;;
37305;SDS011;23193;42.656;21.170;2023-09-19T08:08:00;37.33;;;15.37;;
37305;SDS011;23193;42.656;21.170;2023-09-19T08:10:28;25.05;;;13.40;;
37305;SDS011;23193;42.656;21.170;2023-09-19T08:13:02;26.33;;;13.77;;
37305;SDS011;23193;42.656;21.170;2023-09-19T08:15:31;29.90;;;14.38;;
37305;SDS011;23193;42.656;21.170;2023-09-19T08:17:59;26.83;;;13.85;;
37305;SDS011;23193;42.656;21.170;2023-09-19T08:24:27;26.13;;;12.85;;
37305;SDS011;23193;42.656;21.170;2023-09-19T08:26:55;30.60;;;13.77;;
37305;SDS011;23193;42.656;21.170;2023-09-19T08:29:24;29.10;;;13.32;;
37305;SDS011;23193;42.656;21.170;2023-09-19T08:31:55;32.30;;;13.35;;
37305;SDS011;23193;42.656;21.170;2023-09-19T08:34:23;26.10;;;12.65;;
37305;SDS011;23193;42.656;21.170;2023-09-19T08:36:52;21.92;;;12.63;;
37305;SDS011;23193;42.656;21.170;2023-09-19T08:39:24;30.63;;;13.40;;
37305;SDS011;23193;42.656;21.170;2023-09-19T08:41:58;28.42;;;12.60;;
37305;SDS011;23193;42.656;21.170;2023-09-19T08:44:26;26.92;;;11.90;;
37305;SDS011;23193;42.656;21.170;2023-09-19T08:47:02;24.13;;;12.85;;
37305;SDS011;23193;42.656;21.170;2023-09-19T08:49:41;30.58;;;12.52;;
37305;SDS011;23193;42.656;21.170;2023-09-19T08:52:22;28.33;;;12.02;;
37305;SDS011;23193;42.656;21.170;2023-09-19T08:54:53;26.58;;;12.73;;
37305;SDS011;23193;42.656;21.170;2023-09-19T08:57:25;21.20;;;11.68;;
37305;SDS011;23193;42.656;21.170;2023-09-19T08:59:56;20.75;;;12.65;;
37305;SDS011;23193;42.656;21.170;2023-09-19T09:02:25;26.52;;;12.98;;
37305;SDS011;23193;42.656;21.170;2023-09-19T09:04:56;24.55;;;12.20;;
37305;SDS011;23193;42.656;21.170;2023-09-19T09:07:25;21.70;;;12.27;;
37305;SDS011;23193;42.656;21.170;2023-09-19T09:09:55;26.65;;;11.02;;
37305;SDS011;23193;42.656;21.170;2023-09-19T09:12:23;17.50;;;10.82;;
37305;SDS011;23193;42.656;21.170;2023-09-19T09:14:52;18.90;;;11.70;;
37305;SDS011;23193;42.656;21.170;2023-09-19T09:17:20;20.83;;;10.93;;
37305;SDS011;23193;42.656;21.170;2023-09-19T09:19:49;20.40;;;10.65;;
37305;SDS011;23193;42.656;21.170;2023-09-19T09:22:19;32.63;;;11.48;;
37305;SDS011;23193;42.656;21.170;2023-09-19T09:24:51;25.75;;;11.32;;
37305;SDS011;23193;42.656;21.170;2023-09-19T09:27:20;19.10;;;10.77;;
37305;SDS011;23193;42.656;21.170;2023-09-19T09:29:51;28.45;;;10.63;;
37305;SDS011;23193;42.656;21.170;2023-09-19T09:32:29;27.35;;;10.48;;
37305;SDS011;23193;42.656;21.170;2023-09-19T09:35:00;26.88;;;10.40;;
37305;SDS011;23193;42.656;21.170;2023-09-19T09:37:30;27.17;;;11.93;;
37305;SDS011;23193;42.656;21.170;2023-09-19T09:39:59;44.35;;;12.27;;
37305;SDS011;23193;42.656;21.170;2023-09-19T09:42:46;24.08;;;9.73;;
37305;SDS011;23193;42.656;21.170;2023-09-19T09:45:20;16.35;;;9.43;;
37305;SDS011;23193;42.656;21.170;2023-09-19T09:48:01;34.08;;;12.35;;
37305;SDS011;23193;42.656;21.170;2023-09-19T09:50:48;23.10;;;9.63;;
37305;SDS011;23193;42.656;21.170;2023-09-19T09:53:24;20.40;;;9.93;;
37305;SDS011;23193;42.656;21.170;2023-09-19T09:55:57;114.75;;;15.55;;
37305;SDS011;23193;42.656;21.170;2023-09-19T09:58:26;136.00;;;17.63;;
37305;SDS011;23193;42.656;21.170;2023-09-19T10:00:56;27.13;;;10.95;;
37305;SDS011;23193;42.656;21.170;2023-09-19T10:03:34;19.50;;;8.82;;
37305;SDS011;23193;42.656;21.170;2023-09-19T10:06:07;21.35;;;11.73;;
37305;SDS011;23193;42.656;21.170;2023-09-19T10:08:57;19.33;;;9.73;;
37305;SDS011;23193;42.656;21.170;2023-09-19T10:11:31;18.50;;;9.38;;
37305;SDS011;23193;42.656;21.170;2023-09-19T10:14:00;21.45;;;9.93;;
37305;SDS011;23193;42.656;21.170;2023-09-19T10:16:33;16.45;;;9.32;;
37305;SDS011;23193;42.656;21.170;2023-09-19T10:19:03;20.23;;;8.93;;
37305;SDS011;23193;42.656;21.170;2023-09-19T10:21:36;20.23;;;9.73;;
37305;SDS011;23193;42.656;21.170;2023-09-19T10:24:05;19.90;;;9.57;;
37305;SDS011;23193;42.656;21.170;2023-09-19T10:26:36;15.13;;;9.07;;
37305;SDS011;23193;42.656;21.170;2023-09-19T10:29:04;18.70;;;9.82;;
37305;SDS011;23193;42.656;21.170;2023-09-19T10:31:36;22.27;;;8.73;;
37305;SDS011;23193;42.656;21.170;2023-09-19T10:34:08;19.75;;;8.77;;
37305;SDS011;23193;42.656;21.170;2023-09-19T10:36:36;20.33;;;8.77;;
37305;SDS011;23193;42.656;21.170;2023-09-19T10:39:05;22.17;;;8.57;;
37305;SDS011;23193;42.656;21.170;2023-09-19T10:41:35;17.50;;;8.00;;
37305;SDS011;23193;42.656;21.170;2023-09-19T10:44:04;20.92;;;8.65;;
37305;SDS011;23193;42.656;21.170;2023-09-19T10:46:32;19.90;;;10.07;;
37305;SDS011;23193;42.656;21.170;2023-09-19T10:49:01;25.23;;;8.23;;
37305;SDS011;23193;42.656;21.170;2023-09-19T10:51:31;16.30;;;7.93;;
37305;SDS011;23193;42.656;21.170;2023-09-19T10:54:08;14.50;;;8.63;;
37305;SDS011;23193;42.656;21.170;2023-09-19T10:56:43;15.85;;;8.07;;
37305;SDS011;23193;42.656;21.170;2023-09-19T11:01:46;17.25;;;8.18;;
37305;SDS011;23193;42.656;21.170;2023-09-19T11:04:33;18.08;;;7.07;;
37305;SDS011;23193;42.656;21.170;2023-09-19T11:07:04;24.02;;;10.45;;
37305;SDS011;23193;42.656;21.170;2023-09-19T11:09:43;17.83;;;6.80;;
37305;SDS011;23193;42.656;21.170;2023-09-19T11:14:58;15.35;;;8.02;;
37305;SDS011;23193;42.656;21.170;2023-09-19T11:17:39;20.77;;;10.23;;
37305;SDS011;23193;42.656;21.170;2023-09-19T11:20:16;25.80;;;11.88;;
37305;SDS011;23193;42.656;21.170;2023-09-19T11:30:49;24.75;;;8.50;;
37305;SDS011;23193;42.656;21.170;2023-09-19T11:36:04;20.63;;;9.95;;
37305;SDS011;23193;42.656;21.170;2023-09-19T11:43:48;20.40;;;8.88;;
37305;SDS011;23193;42.656;21.170;2023-09-19T11:46:22;19.23;;;8.18;;
37305;SDS011;23193;42.656;21.170;2023-09-19T11:48:51;24.25;;;8.65;;
37305;SDS011;23193;42.656;21.170;2023-09-19T11:51:22;25.20;;;10.35;;
37305;SDS011;23193;42.656;21.170;2023-09-19T11:53:55;17.70;;;7.57;;
37305;SDS011;23193;42.656;21.170;2023-09-19T11:56:23;18.63;;;7.97;;
37305;SDS011;23193;42.656;21.170;2023-09-19T11:58:53;20.55;;;12.00;;
37305;SDS011;23193;42.656;21.170;2023-09-19T12:01:27;15.65;;;8.07;;
37305;SDS011;23193;42.656;21.170;2023-09-19T12:03:57;17.25;;;7.90;;
37305;SDS011;23193;42.656;21.170;2023-09-19T12:06:27;17.50;;;8.10;;
37305;SDS011;23193;42.656;21.170;2023-09-19T12:08:56;16.88;;;7.47;;
37305;SDS011;23193;42.656;21.170;2023-09-19T12:11:30;16.07;;;6.93;;
37305;SDS011;23193;42.656;21.170;2023-09-19T12:14:02;17.90;;;7.57;;
37305;SDS011;23193;42.656;21.170;2023-09-19T12:16:31;16.50;;;8.10;;
37305;SDS011;23193;42.656;21.170;2023-09-19T12:19:17;22.23;;;7.53;;
37305;SDS011;23193;42.656;21.170;2023-09-19T12:21:55;22.88;;;7.78;;
37305;SDS011;23193;42.656;21.170;2023-09-19T12:24:27;13.90;;;7.70;;
37305;SDS011;23193;42.656;21.170;2023-09-19T12:27:03;16.48;;;7.70;;
37305;SDS011;23193;42.656;21.170;2023-09-19T12:29:41;18.85;;;7.07;;
37305;SDS011;23193;42.656;21.170;2023-09-19T12:32:10;14.93;;;7.57;;
37305;SDS011;23193;42.656;21.170;2023-09-19T12:34:38;17.05;;;8.23;;
37305;SDS011;23193;42.656;21.170;2023-09-19T12:37:10;19.77;;;7.45;;
37305;SDS011;23193;42.656;21.170;2023-09-19T12:39:43;22.52;;;7.95;;
37305;SDS011;23193;42.656;21.170;2023-09-19T12:49:19;22.80;;;8.30;;
37305;SDS011;23193;42.656;21.170;2023-09-19T12:51:47;22.50;;;9.02;;
37305;SDS011;23193;42.656;21.170;2023-09-19T12:54:15;27.65;;;7.97;;
37305;SDS011;23193;42.656;21.170;2023-09-19T12:56:44;22.77;;;9.38;;
37305;SDS011;23193;42.656;21.170;2023-09-19T12:59:12;28.05;;;8.40;;
37305;SDS011;23193;42.656;21.170;2023-09-19T13:01:41;20.98;;;9.50;;
37305;SDS011;23193;42.656;21.170;2023-09-19T13:04:13;27.20;;;9.27;;
37305;SDS011;23193;42.656;21.170;2023-09-19T13:06:53;21.55;;;9.05;;
37305;SDS011;23193;42.656;21.170;2023-09-19T13:09:22;38.83;;;10.93;;
37305;SDS011;23193;42.656;21.170;2023-09-19T13:12:02;33.58;;;8.93;;
37305;SDS011;23193;42.656;21.170;2023-09-19T13:14:31;24.35;;;8.55;;
37305;SDS011;23193;42.656;21.170;2023-09-19T13:17:05;24.20;;;8.50;;
37305;SDS011;23193;42.656;21.170;2023-09-19T13:19:47;18.55;;;7.75;;
37305;SDS011;23193;42.656;21.170;2023-09-19T13:22:40;30.35;;;8.45;;
37305;SDS011;23193;42.656;21.170;2023-09-19T13:25:12;35.35;;;8.20;;
37305;SDS011;23193;42.656;21.170;2023-09-19T13:27:52;36.22;;;9.52;;
37305;SDS011;23193;42.656;21.170;2023-09-19T13:30:23;42.15;;;9.10;;
37305;SDS011;23193;42.656;21.170;2023-09-19T13:33:05;16.63;;;7.97;;
37305;SDS011;23193;42.656;21.170;2023-09-19T13:35:34;17.73;;;8.57;;
37305;SDS011;23193;42.656;21.170;2023-09-19T13:38:03;31.73;;;9.73;;
37305;SDS011;23193;42.656;21.170;2023-09-19T13:40:33;26.80;;;7.80;;
37305;SDS011;23193;42.656;21.170;2023-09-19T13:43:02;29.23;;;9.43;;
37305;SDS011;23193;42.656;21.170;2023-09-19T13:45:29;22.40;;;7.97;;
37305;SDS011;23193;42.656;21.170;2023-09-19T13:47:57;22.20;;;8.80;;
37305;SDS011;23193;42.656;21.170;2023-09-19T13:50:26;16.70;;;8.60;;
37305;SDS011;23193;42.656;21.170;2023-09-19T13:52:56;14.50;;;7.35;;
37305;SDS011;23193;42.656;21.170;2023-09-19T13:55:24;22.98;;;9.35;;
37305;SDS011;23193;42.656;21.170;2023-09-19T13:57:52;17.48;;;7.93;;
37305;SDS011;23193;42.656;21.170;2023-09-19T14:00:22;20.60;;;9.80;;
37305;SDS011;23193;42.656;21.170;2023-09-19T14:02:50;27.90;;;10.45;;
37305;SDS011;23193;42.656;21.170;2023-09-19T14:05:19;27.02;;;10.90;;
37305;SDS011;23193;42.656;21.170;2023-09-19T14:07:47;24.73;;;10.07;;
37305;SDS011;23193;42.656;21.170;2023-09-19T14:10:16;33.53;;;11.95;;
37305;SDS011;23193;42.656;21.170;2023-09-19T14:12:47;20.98;;;10.48;;
37305;SDS011;23193;42.656;21.170;2023-09-19T14:15:15;23.65;;;10.82;;
37305;SDS011;23193;42.656;21.170;2023-09-19T14:17:42;35.85;;;11.05;;
37305;SDS011;23193;42.656;21.170;2023-09-19T14:20:13;23.92;;;10.90;;
37305;SDS011;23193;42.656;21.170;2023-09-19T14:22:42;44.72;;;12.82;;
37305;SDS011;23193;42.656;21.170;2023-09-19T14:25:10;23.55;;;11.18;;
37305;SDS011;23193;42.656;21.170;2023-09-19T14:27:38;43.15;;;13.55;;
37305;SDS011;23193;42.656;21.170;2023-09-19T14:30:07;32.80;;;11.88;;
37305;SDS011;23193;42.656;21.170;2023-09-19T14:32:35;40.17;;;12.05;;
37305;SDS011;23193;42.656;21.170;2023-09-19T14:35:05;27.27;;;9.73;;
37305;SDS011;23193;42.656;21.170;2023-09-19T14:37:33;40.00;;;10.90;;
37305;SDS011;23193;42.656;21.170;2023-09-19T14:40:01;28.40;;;10.82;;
37305;SDS011;23193;42.656;21.170;2023-09-19T14:42:38;34.30;;;10.15;;
37305;SDS011;23193;42.656;21.170;2023-09-19T14:45:07;28.48;;;10.95;;
37305;SDS011;23193;42.656;21.170;2023-09-19T14:47:36;25.08;;;10.25;;
37305;SDS011;23193;42.656;21.170;2023-09-19T14:50:04;23.27;;;9.90;;
37305;SDS011;23193;42.656;21.170;2023-09-19T14:52:33;30.15;;;11.20;;
37305;SDS011;23193;42.656;21.170;2023-09-19T14:55:03;33.90;;;9.85;;
37305;SDS011;23193;42.656;21.170;2023-09-19T14:57:33;32.22;;;9.70;;
37305;SDS011;23193;42.656;21.170;2023-09-19T15:00:00;32.08;;;10.63;;
37305;SDS011;23193;42.656;21.170;2023-09-19T15:02:29;33.05;;;11.75;;
37305;SDS011;23193;42.656;21.170;2023-09-19T15:04:58;23.45;;;9.45;;
37305;SDS011;23193;42.656;21.170;2023-09-19T15:07:26;29.00;;;9.65;;
37305;SDS011;23193;42.656;21.170;2023-09-19T15:09:55;46.40;;;10.20;;
37305;SDS011;23193;42.656;21.170;2023-09-19T15:12:24;35.13;;;10.27;;
37305;SDS011;23193;42.656;21.170;2023-09-19T15:14:52;32.90;;;9.48;;
37305;SDS011;23193;42.656;21.170;2023-09-19T15:17:20;32.80;;;10.57;;
37305;SDS011;23193;42.656;21.170;2023-09-19T15:19:49;22.05;;;9.52;;
37305;SDS011;23193;42.656;21.170;2023-09-19T15:22:17;37.45;;;10.43;;
37305;SDS011;23193;42.656;21.170;2023-09-19T15:24:46;26.20;;;10.35;;
37305;SDS011;23193;42.656;21.170;2023-09-19T15:27:14;32.20;;;9.90;;
37305;SDS011;23193;42.656;21.170;2023-09-19T15:29:43;46.92;;;10.65;;